Acme, LA

8:16 PM CST on November 28, 2014 (GMT -0600)
Alexandria Esler Regional | Change Station
CLOSE
Current Station
Airport
Location: Alexandria Esle,
Elevation: 112 ft
Nearby Weather Stations

Elev 112 ft 31.39 °N, 92.30 °W | Updated 23 minutes ago

Clear
Clear
52 °F
Feels Like 52 °F
N
7
Wind Variable Wind from South

Today
High -- | Low -- °F
--% Chance of Precip.
Yesterday
High -- | Low -- °F
Precip. -- in
6:45 AM 5:04 PM
Waxing Crescent, 46% visible
Pressure 30.21 in
Visibility 10.0 miles
Clouds Clear
Dew Point 44 °F
Humidity 74%
Rainfall 0.00 in
Snow Depth Not available.
UV 0 out of 12
Pollen 2.50 out of 12
Air Quality Not available.
Flu Activity Not available.
METAR KESF 290153Z AUTO 18006KT 10SM CLR 11/07 A3021 RMK AO2 SLP228 T01110067

More Conditions Fewer Conditions

Pressure 30.21 in
Visibility 10.0 miles
Clouds Clear
Dew Point 44 °F
Humidity 74%
Rainfall 0.00 in
Snow Depth Not available.
UV 0 out of 12
Pollen 2.50 out of 12
Air Quality Not available.
Flu Activity Not available.
METAR KESF 290153Z AUTO 18006KT 10SM CLR 11/07 A3021 RMK AO2 SLP228 T01110067

More Conditions Fewer Conditions

10-Day Weather Forecast

Almanac

Astronomy

Nov. 28, 2014 Rise Set
Actual Time
Civil Twilight
Nautical Twilight
Astronomical Twilight
Moon
Length of Visible Light
Length of Day
Tomorrow will be .
, % of the Moon is Illuminated

Today's Extremes

State Highs State Lows

Community

WunderPhotos

Upload Photos

1,774,374 photos uploaded!

WunderBlogs® & News

Nearby

Air Quality

  Air Quality AQ Index Pollutant
Not available.

Snow Depth

Station Depth Elevation

Earthquake Activity

City Distance Mag. Time & Date
Minimum magnitude displayed is 2.5.

Coastal Water Temperatures

Place Temperature

Nearby Weather Stations